createdAt,value
2019-05-01T00:02:21.768Z,25.25
2019-05-01T00:04:56.128Z,21.93
2019-05-01T00:07:29.806Z,22.45
2019-05-01T00:09:59.258Z,26.97
2019-05-01T00:12:28.839Z,24.35
2019-05-01T00:15:01.306Z,29.67
2019-05-01T00:17:32.605Z,28.98
2019-05-01T00:20:02.035Z,26.87
2019-05-01T00:22:31.786Z,32.97
2019-05-01T00:25:01.289Z,31.62
2019-05-01T00:30:00.588Z,32.03
2019-05-01T00:32:30.355Z,32.67
2019-05-01T00:34:59.893Z,28.60
2019-05-01T00:37:30.959Z,30.93
2019-05-01T00:40:00.451Z,31.75
2019-05-01T00:42:30.005Z,32.15
2019-05-01T00:44:59.506Z,35.80
2019-05-01T00:47:29.129Z,24.20
2019-05-01T00:49:58.686Z,21.42
2019-05-01T00:52:28.162Z,23.47
2019-05-01T00:55:16.021Z,17.10
2019-05-01T00:57:50.536Z,26.33
2019-05-01T01:00:28.969Z,20.45
2019-05-01T01:02:58.593Z,25.43
2019-05-01T01:05:28.228Z,23.38
2019-05-01T01:08:00.722Z,22.27
2019-05-01T01:10:30.213Z,12.20
2019-05-01T01:12:59.653Z,10.63
2019-05-01T01:15:29.254Z,11.97
2019-05-01T01:17:58.754Z,10.83
2019-05-01T01:20:28.238Z,13.18
2019-05-01T01:22:57.799Z,6.45
2019-05-01T01:25:27.407Z,6.15
2019-05-01T01:27:56.963Z,8.48
2019-05-01T01:30:26.481Z,9.13
2019-05-01T01:32:56.093Z,13.08
2019-05-01T01:35:25.660Z,10.08
2019-05-01T01:37:55.207Z,8.63
2019-05-01T01:40:24.773Z,9.93
2019-05-01T01:42:56.443Z,11.80
2019-05-01T01:45:35.391Z,9.50
2019-05-01T01:48:10.104Z,14.70
2019-05-01T01:50:43.727Z,15.55
2019-05-01T01:53:15.999Z,14.83
2019-05-01T01:55:46.987Z,14.93
2019-05-01T01:58:17.857Z,15.58
2019-05-01T02:00:55.349Z,12.85
2019-05-01T02:03:26.454Z,19.12
2019-05-01T02:05:56.003Z,15.53
2019-05-01T02:08:25.613Z,8.95
2019-05-01T02:10:55.184Z,8.00
2019-05-01T02:13:24.841Z,6.77
2019-05-01T02:15:54.254Z,5.47
2019-05-01T02:18:24.046Z,5.70
2019-05-01T02:20:53.518Z,4.85
2019-05-01T02:23:22.994Z,9.18
2019-05-01T02:25:52.626Z,5.90
2019-05-01T02:28:30.252Z,8.75
2019-05-01T02:31:28.087Z,7.65
2019-05-01T02:33:51.412Z,11.55
2019-05-01T02:36:23.899Z,10.43
2019-05-01T02:38:55.490Z,8.83
2019-05-01T02:41:28.208Z,7.97
2019-05-01T02:44:00.888Z,10.18
2019-05-01T02:46:33.113Z,10.73
2019-05-01T02:49:05.682Z,12.85
2019-05-01T02:51:38.217Z,9.18
2019-05-01T02:54:09.002Z,10.40
2019-05-01T02:56:45.365Z,12.07
2019-05-01T02:59:14.879Z,16.97
2019-05-01T03:01:47.649Z,22.17
2019-05-01T03:04:16.045Z,16.42
2019-05-01T03:06:46.870Z,13.40
2019-05-01T03:11:48.565Z,19.95
2019-05-01T03:14:19.744Z,19.87
2019-05-01T03:16:51.977Z,18.50
2019-05-01T03:19:24.820Z,16.30
2019-05-01T03:21:56.404Z,18.07
2019-05-01T03:24:28.050Z,21.85
2019-05-01T03:26:58.713Z,18.37
2019-05-01T03:29:28.605Z,21.02
2019-05-01T03:32:15.874Z,20.80
2019-05-01T03:34:29.832Z,26.20
2019-05-01T03:36:59.959Z,23.32
2019-05-01T03:39:30.834Z,27.45
2019-05-01T03:42:00.527Z,23.17
2019-05-01T03:44:30.059Z,27.75
2019-05-01T03:46:59.890Z,23.87
2019-05-01T03:49:29.409Z,27.75
2019-05-01T03:51:58.945Z,27.07
2019-05-01T03:54:29.314Z,28.45
2019-05-01T03:56:59.038Z,29.77
2019-05-01T03:59:28.792Z,27.58
2019-05-01T04:02:02.814Z,27.20
2019-05-01T04:04:33.906Z,29.05
2019-05-01T04:07:04.504Z,25.43
2019-05-01T04:09:34.631Z,26.77
2019-05-01T04:12:04.348Z,29.10
2019-05-01T04:14:34.246Z,31.33
2019-05-01T04:17:05.497Z,22.40
2019-05-01T04:19:35.221Z,32.73
2019-05-01T04:22:09.948Z,33.93
2019-05-01T04:24:40.280Z,26.00
2019-05-01T04:27:16.263Z,31.95
2019-05-01T04:29:50.620Z,32.00
2019-05-01T04:32:22.069Z,24.65
2019-05-01T04:35:10.195Z,23.42
2019-05-01T04:37:39.868Z,31.27
2019-05-01T04:40:09.523Z,31.68
2019-05-01T04:42:39.384Z,28.70
2019-05-01T04:45:09.183Z,32.48
2019-05-01T04:47:38.862Z,32.20
2019-05-01T04:50:08.662Z,35.55
2019-05-01T04:52:39.021Z,29.25
2019-05-01T04:55:08.814Z,23.83
2019-05-01T04:57:38.839Z,28.05
2019-05-01T05:00:08.540Z,34.50
2019-05-01T05:02:39.803Z,24.90
2019-05-01T05:05:09.600Z,26.68
2019-05-01T05:07:39.161Z,34.00
2019-05-01T05:10:08.794Z,25.70
2019-05-01T05:12:42.933Z,27.02
2019-05-01T05:15:29.277Z,30.75
2019-05-01T05:17:58.989Z,30.82
2019-05-01T05:20:28.582Z,27.13
2019-05-01T05:22:58.824Z,40.58
2019-05-01T05:25:28.837Z,44.20
2019-05-01T05:27:59.954Z,41.85
2019-05-01T05:30:30.328Z,47.23
2019-05-01T05:33:02.668Z,37.13
2019-05-01T05:35:34.568Z,38.88
2019-05-01T05:38:16.619Z,30.65
2019-05-01T05:40:46.658Z,40.63
2019-05-01T05:43:16.758Z,42.70
2019-05-01T05:45:46.546Z,32.53
2019-05-01T05:48:16.344Z,37.07
2019-05-01T05:50:57.506Z,31.48
2019-05-01T05:53:40.564Z,30.32
2019-05-01T05:56:17.556Z,42.05
2019-05-01T05:58:50.908Z,33.70
2019-05-01T06:01:23.773Z,29.85
2019-05-01T06:03:57.282Z,44.67
2019-05-01T06:06:46.726Z,35.77
2019-05-01T06:09:18.219Z,38.20
2019-05-01T06:11:57.761Z,36.33
2019-05-01T06:14:43.986Z,36.15
2019-05-01T06:17:30.389Z,44.83
2019-05-01T06:20:10.570Z,44.35
2019-05-01T06:22:59.874Z,28.98
2019-05-01T06:25:31.996Z,41.55
2019-05-01T06:28:01.607Z,33.33
2019-05-01T06:30:31.432Z,41.98
2019-05-01T06:33:04.111Z,34.80
2019-05-01T06:35:34.005Z,41.45
2019-05-01T06:38:16.433Z,40.83
2019-05-01T06:40:52.696Z,32.40
2019-05-01T06:43:43.614Z,31.73
2019-05-01T06:46:14.335Z,33.60
2019-05-01T06:49:01.341Z,31.82
2019-05-01T06:51:35.383Z,36.23
2019-05-01T06:54:11.507Z,34.43
2019-05-01T06:56:40.387Z,41.98
2019-05-01T07:01:39.103Z,43.50
2019-05-01T07:04:08.775Z,27.85
2019-05-01T07:06:38.546Z,30.80
2019-05-01T07:09:11.735Z,37.33
2019-05-01T07:11:47.698Z,41.88
2019-05-01T07:14:16.115Z,39.38
2019-05-01T07:16:45.853Z,35.88
2019-05-01T07:19:17.373Z,36.30
2019-05-01T07:21:46.913Z,38.13
2019-05-01T07:24:16.667Z,35.58
2019-05-01T07:26:48.108Z,38.30
2019-05-01T07:29:22.043Z,39.95
2019-05-01T07:31:51.627Z,26.75
2019-05-01T07:34:21.619Z,30.52
2019-05-01T07:36:52.291Z,33.40
2019-05-01T07:39:21.835Z,29.92
2019-05-01T07:41:51.367Z,35.83
2019-05-01T07:44:33.872Z,31.05
2019-05-01T07:47:09.421Z,35.05
2019-05-01T07:49:54.757Z,30.23
2019-05-01T07:52:24.831Z,41.68
2019-05-01T07:54:55.627Z,36.58
2019-05-01T07:59:58.164Z,38.48
2019-05-01T08:02:31.011Z,42.50
2019-05-01T08:04:58.088Z,27.32
2019-05-01T08:07:31.965Z,40.55
2019-05-01T08:09:58.726Z,34.25
2019-05-01T08:12:28.190Z,43.50
2019-05-01T08:14:57.702Z,33.70
2019-05-01T08:17:28.800Z,42.48
2019-05-01T08:20:16.795Z,33.65
2019-05-01T08:22:46.468Z,43.63
2019-05-01T08:25:16.062Z,44.20
2019-05-01T08:27:51.091Z,41.77
2019-05-01T08:30:20.076Z,35.05
2019-05-01T08:32:51.106Z,37.88
2019-05-01T08:35:22.246Z,36.93
2019-05-01T08:37:53.731Z,41.88
2019-05-01T08:40:22.865Z,43.08
2019-05-01T08:42:52.482Z,45.78
2019-05-01T08:45:29.499Z,38.35
2019-05-01T08:48:13.245Z,37.95
2019-05-01T08:50:42.828Z,38.15
2019-05-01T08:53:12.428Z,41.92
2019-05-01T08:55:45.020Z,43.40
2019-05-01T08:58:13.989Z,42.00
2019-05-01T09:00:43.796Z,45.28
2019-05-01T09:03:17.923Z,38.33
2019-05-01T09:05:44.648Z,44.93
2019-05-01T09:08:14.133Z,38.03
2019-05-01T09:10:43.553Z,46.05
2019-05-01T09:13:13.094Z,39.10
2019-05-01T09:15:43.779Z,40.63
2019-05-01T09:18:13.758Z,32.75
2019-05-01T09:20:44.917Z,38.98
2019-05-01T09:23:14.692Z,40.12
2019-05-01T09:25:51.477Z,40.40
2019-05-01T09:28:25.847Z,38.13
2019-05-01T09:31:01.271Z,42.17
2019-05-01T09:33:30.803Z,39.35
2019-05-01T09:35:59.574Z,38.02
2019-05-01T09:38:29.240Z,44.17
2019-05-01T09:40:58.801Z,44.15
2019-05-01T09:43:30.888Z,42.62
2019-05-01T09:45:59.373Z,43.63
2019-05-01T09:48:29.025Z,44.93
2019-05-01T09:51:05.419Z,41.75
2019-05-01T09:53:36.116Z,46.85
2019-05-01T09:56:07.690Z,45.33
2019-05-01T09:58:38.285Z,43.92
2019-05-01T10:01:07.884Z,43.80
2019-05-01T10:03:37.412Z,40.12
2019-05-01T10:06:08.018Z,41.60
2019-05-01T10:08:40.042Z,39.58
2019-05-01T10:11:08.586Z,38.15
2019-05-01T10:13:38.601Z,40.33
2019-05-01T10:16:08.330Z,41.55
2019-05-01T10:18:37.811Z,42.17
2019-05-01T10:21:07.353Z,41.73
2019-05-01T10:23:38.560Z,39.67
2019-05-01T10:26:09.734Z,41.92
2019-05-01T10:28:50.047Z,39.92
2019-05-01T10:31:19.572Z,44.48
2019-05-01T10:33:50.709Z,50.20
2019-05-01T10:36:30.899Z,46.75
2019-05-01T10:39:00.455Z,44.50
2019-05-01T10:41:31.510Z,43.28
2019-05-01T10:44:02.508Z,49.50
2019-05-01T10:46:32.034Z,48.80
2019-05-01T10:49:01.630Z,49.63
2019-05-01T10:51:31.110Z,47.73
2019-05-01T10:54:00.611Z,46.55
2019-05-01T10:56:30.084Z,44.87
2019-05-01T10:58:59.576Z,47.30
2019-05-01T11:01:30.938Z,52.03
2019-05-01T11:04:00.442Z,47.38
2019-05-01T11:06:29.970Z,47.07
2019-05-01T11:08:59.383Z,55.10
2019-05-01T11:11:28.869Z,52.30
2019-05-01T11:13:58.389Z,53.70
2019-05-01T11:16:27.843Z,49.70
2019-05-01T11:18:57.494Z,53.65
2019-05-01T11:21:28.024Z,52.10
2019-05-01T11:24:00.190Z,56.85
2019-05-01T11:26:30.864Z,47.23
2019-05-01T11:29:00.500Z,49.30
2019-05-01T11:31:50.104Z,51.97
2019-05-01T11:34:23.933Z,53.13
2019-05-01T11:37:11.452Z,57.00
2019-05-01T11:39:48.622Z,48.80
2019-05-01T11:42:18.856Z,49.42
2019-05-01T11:44:48.394Z,55.20
2019-05-01T11:47:17.792Z,52.53
2019-05-01T11:49:47.422Z,57.83
2019-05-01T11:52:16.959Z,50.73
2019-05-01T11:54:46.442Z,47.88
2019-05-01T11:57:15.906Z,43.27
2019-05-01T11:59:45.422Z,53.55
2019-05-01T12:02:14.906Z,52.87
2019-05-01T12:04:44.331Z,46.13
2019-05-01T12:07:13.856Z,47.60
2019-05-01T12:09:43.409Z,46.35
2019-05-01T12:12:14.434Z,46.67
2019-05-01T12:14:43.864Z,50.25
2019-05-01T12:17:18.007Z,45.63
2019-05-01T12:19:49.059Z,51.42
2019-05-01T12:22:18.519Z,51.00
2019-05-01T12:24:49.569Z,52.13
2019-05-01T12:27:18.984Z,46.00
2019-05-01T12:29:48.540Z,47.48
2019-05-01T12:32:18.023Z,45.17
2019-05-01T12:34:48.999Z,43.52
2019-05-01T12:37:38.595Z,40.10
2019-05-01T12:40:11.604Z,46.73
2019-05-01T12:42:41.159Z,47.58
2019-05-01T12:45:12.211Z,37.73
2019-05-01T12:47:46.190Z,46.98
2019-05-01T12:50:16.985Z,42.98
2019-05-01T12:52:54.101Z,45.00
2019-05-01T12:55:34.495Z,44.58
2019-05-01T12:58:04.133Z,41.60
2019-05-01T13:00:52.168Z,44.42
2019-05-01T13:03:21.707Z,44.95
2019-05-01T13:05:51.282Z,46.25
2019-05-01T13:08:20.781Z,42.38
2019-05-01T13:10:50.631Z,42.78
2019-05-01T13:13:20.188Z,48.07
2019-05-01T13:15:49.766Z,47.00
2019-05-01T13:18:19.263Z,49.50
2019-05-01T13:20:48.768Z,44.80
2019-05-01T13:23:19.925Z,48.00
2019-05-01T13:25:50.471Z,43.98
2019-05-01T13:28:24.618Z,46.40
2019-05-01T13:31:07.934Z,47.23
2019-05-01T13:33:37.506Z,45.65
2019-05-01T13:36:07.144Z,50.63
2019-05-01T13:38:36.691Z,48.80
2019-05-01T13:41:06.478Z,43.73
2019-05-01T13:43:36.118Z,47.93
2019-05-01T13:46:06.598Z,41.98
2019-05-01T13:48:37.632Z,48.73
2019-05-01T13:51:07.216Z,42.53
2019-05-01T13:53:36.846Z,50.58
2019-05-01T13:56:08.371Z,42.13
2019-05-01T13:58:37.874Z,42.45
2019-05-01T14:01:07.707Z,46.08
2019-05-01T14:03:37.197Z,56.00
2019-05-01T14:06:06.852Z,47.80
2019-05-01T14:08:37.856Z,52.33
2019-05-01T14:11:07.395Z,46.02
2019-05-01T14:13:37.476Z,49.27
2019-05-01T14:16:07.256Z,47.03
2019-05-01T14:18:36.768Z,54.27
2019-05-01T14:21:14.026Z,56.65
2019-05-01T14:23:54.224Z,51.53
2019-05-01T14:26:23.687Z,49.18
2019-05-01T14:28:53.654Z,57.00
2019-05-01T14:31:23.128Z,59.10
2019-05-01T14:33:52.762Z,53.13
2019-05-01T14:36:22.432Z,60.17
2019-05-01T14:38:54.434Z,58.38
2019-05-01T14:41:25.770Z,58.83
2019-05-01T14:43:55.260Z,61.35
2019-05-01T14:46:24.724Z,63.52
2019-05-01T14:48:54.320Z,61.42
2019-05-01T14:51:23.849Z,61.93
2019-05-01T14:53:53.429Z,62.53
2019-05-01T14:56:22.949Z,60.47
2019-05-01T14:58:52.521Z,56.25
2019-05-01T15:01:21.987Z,62.47
2019-05-01T15:03:51.488Z,58.68
2019-05-01T15:06:21.602Z,64.22
2019-05-01T15:08:51.103Z,62.05
2019-05-01T15:11:20.637Z,54.38
2019-05-01T15:13:57.854Z,62.83
2019-05-01T15:16:32.922Z,62.90
2019-05-01T15:19:13.185Z,70.35
2019-05-01T15:21:42.701Z,69.40
2019-05-01T15:24:12.409Z,63.38
2019-05-01T15:26:41.861Z,66.40
2019-05-01T15:29:11.422Z,62.23
2019-05-01T15:31:40.959Z,62.67
2019-05-01T15:34:10.663Z,66.87
2019-05-01T15:36:40.337Z,66.07
2019-05-01T15:39:11.609Z,66.45
2019-05-01T15:41:42.911Z,65.28
2019-05-01T15:44:19.739Z,70.22
2019-05-01T15:46:49.245Z,65.87
2019-05-01T15:49:18.911Z,64.32
2019-05-01T15:51:48.334Z,71.20
2019-05-01T15:54:17.822Z,58.68
2019-05-01T15:56:47.323Z,61.30
2019-05-01T15:59:16.893Z,64.40
2019-05-01T16:01:46.389Z,66.17
2019-05-01T16:04:16.021Z,67.00
2019-05-01T16:06:45.485Z,58.60
2019-05-01T16:09:15.109Z,58.38
2019-05-01T16:11:58.448Z,60.20
2019-05-01T16:14:28.037Z,58.58
2019-05-01T16:16:57.651Z,65.47
2019-05-01T16:19:27.145Z,64.07
2019-05-01T16:21:58.262Z,60.75
2019-05-01T16:24:27.784Z,61.83
2019-05-01T16:26:57.254Z,62.13
2019-05-01T16:29:26.771Z,63.02
2019-05-01T16:31:56.347Z,58.03
2019-05-01T16:34:25.936Z,55.60
2019-05-01T16:36:56.621Z,60.83
2019-05-01T16:39:44.316Z,54.73
2019-05-01T16:42:13.792Z,58.85
2019-05-01T16:44:43.289Z,55.12
2019-05-01T16:47:12.749Z,61.10
2019-05-01T16:49:42.370Z,55.20
2019-05-01T16:52:12.121Z,54.60
2019-05-01T16:54:41.701Z,55.52
2019-05-01T16:57:12.984Z,53.30
2019-05-01T16:59:42.632Z,51.28
2019-05-01T17:02:29.963Z,59.20
2019-05-01T17:05:01.052Z,53.95
2019-05-01T17:07:39.530Z,48.42
2019-05-01T17:10:16.958Z,48.55
2019-05-01T17:12:53.819Z,54.30
2019-05-01T17:15:25.610Z,58.02
2019-05-01T17:17:55.260Z,57.55
2019-05-01T17:20:24.826Z,54.30
2019-05-01T17:22:54.364Z,52.43
2019-05-01T17:25:25.624Z,44.10
2019-05-01T17:27:55.244Z,45.20
2019-05-01T17:30:46.306Z,49.18
2019-05-01T17:33:21.005Z,50.38
2019-05-01T17:35:47.030Z,44.45
2019-05-01T17:38:16.604Z,43.13
2019-05-01T17:40:47.423Z,41.30
2019-05-01T17:43:19.363Z,49.20
2019-05-01T17:45:48.842Z,37.13
2019-05-01T17:48:18.414Z,42.87
2019-05-01T17:50:47.933Z,41.77
2019-05-01T17:53:17.651Z,38.80
2019-05-01T17:55:47.270Z,35.45
2019-05-01T17:58:16.781Z,35.73
2019-05-01T18:01:04.148Z,32.48
2019-05-01T18:03:51.319Z,28.70
2019-05-01T18:06:25.247Z,35.30
2019-05-01T18:09:03.021Z,32.17
2019-05-01T18:11:26.071Z,33.75
2019-05-01T18:13:56.845Z,37.75
2019-05-01T18:16:28.009Z,41.23
2019-05-01T18:18:58.941Z,34.05
2019-05-01T18:21:28.501Z,34.77
2019-05-01T18:24:08.789Z,40.30
2019-05-01T18:26:57.570Z,34.33
2019-05-01T18:29:28.667Z,36.65
2019-05-01T18:31:58.173Z,36.70
2019-05-01T18:34:27.654Z,38.58
2019-05-01T18:37:01.895Z,38.83
2019-05-01T18:39:33.017Z,38.48
2019-05-01T18:42:04.171Z,42.20
2019-05-01T18:44:33.827Z,46.02
2019-05-01T18:47:03.463Z,42.23
2019-05-01T18:49:33.003Z,46.42
2019-05-01T18:52:05.778Z,44.40
2019-05-01T18:54:36.426Z,46.20
2019-05-01T18:57:06.892Z,40.23
2019-05-01T18:59:36.475Z,41.92
2019-05-01T19:02:06.421Z,45.37
2019-05-01T19:04:36.078Z,41.70
2019-05-01T19:09:36.889Z,45.23
2019-05-01T19:12:08.241Z,46.33
2019-05-01T19:14:39.298Z,44.27
2019-05-01T19:17:08.873Z,40.48
2019-05-01T19:19:38.562Z,47.80
2019-05-01T19:22:08.589Z,52.58
2019-05-01T19:24:40.164Z,50.00
2019-05-01T19:27:09.853Z,50.03
2019-05-01T19:29:42.396Z,54.70
2019-05-01T19:32:13.231Z,49.40
2019-05-01T19:37:16.544Z,50.78
2019-05-01T19:39:44.230Z,44.77
2019-05-01T19:42:15.888Z,51.88
2019-05-01T19:44:45.446Z,47.13
2019-05-01T19:47:15.180Z,45.35
2019-05-01T19:49:44.810Z,47.62
2019-05-01T19:52:14.311Z,49.47
2019-05-01T19:54:43.857Z,43.08
2019-05-01T19:57:13.458Z,49.47
2019-05-01T19:59:43.208Z,53.78
2019-05-01T20:02:17.312Z,50.98
2019-05-01T20:04:49.892Z,50.78
2019-05-01T20:07:19.786Z,54.25
2019-05-01T20:09:56.688Z,47.80
2019-05-01T20:12:20.280Z,50.52
2019-05-01T20:14:49.772Z,47.17
2019-05-01T20:17:19.412Z,45.50
2019-05-01T20:19:49.175Z,41.98
2019-05-01T20:22:18.646Z,44.07
2019-05-01T20:24:48.112Z,46.05
2019-05-01T20:27:20.595Z,42.17
2019-05-01T20:29:50.060Z,40.67
2019-05-01T20:32:21.040Z,41.88
2019-05-01T20:34:52.746Z,36.33
2019-05-01T20:37:21.796Z,35.73
2019-05-01T20:39:51.276Z,40.70
2019-05-01T20:42:20.847Z,42.13
2019-05-01T20:45:03.462Z,39.60
2019-05-01T20:47:34.393Z,33.85
2019-05-01T20:49:53.028Z,39.05
2019-05-01T20:52:22.479Z,39.23
2019-05-01T20:54:51.944Z,32.05
2019-05-01T20:57:38.170Z,36.98
2019-05-01T21:00:11.407Z,32.65
2019-05-01T21:02:43.106Z,32.98
2019-05-01T21:05:25.838Z,34.92
2019-05-01T21:08:02.521Z,35.00
2019-05-01T21:10:34.345Z,38.40
2019-05-01T21:13:04.942Z,31.35
2019-05-01T21:15:34.449Z,39.33
2019-05-01T21:18:03.952Z,37.42
2019-05-01T21:20:33.935Z,36.50
2019-05-01T21:23:10.386Z,36.25
2019-05-01T21:25:35.073Z,37.67
2019-05-01T21:28:04.739Z,36.20
2019-05-01T21:30:34.350Z,39.73
2019-05-01T21:33:09.894Z,38.42
2019-05-01T21:35:36.643Z,34.83
2019-05-01T21:38:06.077Z,36.17
2019-05-01T21:40:40.390Z,38.70
2019-05-01T21:43:06.741Z,37.08
2019-05-01T21:45:36.321Z,37.93
2019-05-01T21:48:05.885Z,37.85
2019-05-01T21:50:35.401Z,33.35
2019-05-01T21:53:06.813Z,34.33
2019-05-01T21:55:36.305Z,41.85
2019-05-01T21:58:05.855Z,36.98
2019-05-01T22:00:39.273Z,46.55
2019-05-01T22:03:10.607Z,41.70
2019-05-01T22:05:41.307Z,37.45
2019-05-01T22:08:10.905Z,38.80
2019-05-01T22:10:51.294Z,46.02
2019-05-01T22:13:11.691Z,38.13
2019-05-01T22:15:48.980Z,46.77
2019-05-01T22:18:36.459Z,38.88
2019-05-01T22:21:07.733Z,46.15
2019-05-01T22:23:55.246Z,39.58
2019-05-01T22:26:27.425Z,41.03
2019-05-01T22:29:01.292Z,38.83
2019-05-01T22:31:36.721Z,42.43
2019-05-01T22:34:07.819Z,42.60
2019-05-01T22:36:37.331Z,40.55
2019-05-01T22:39:07.903Z,39.75
2019-05-01T22:41:39.057Z,45.58
2019-05-01T22:44:12.829Z,34.63
2019-05-01T22:46:40.788Z,33.63
2019-05-01T22:49:10.265Z,27.82
2019-05-01T22:51:41.248Z,36.58
2019-05-01T22:56:39.333Z,39.80
2019-05-01T22:59:08.792Z,39.67
2019-05-01T23:01:38.372Z,33.60
2019-05-01T23:04:12.112Z,41.53
2019-05-01T23:06:41.794Z,44.23
2019-05-01T23:09:12.970Z,42.85
2019-05-01T23:11:44.111Z,48.92
2019-05-01T23:14:13.635Z,44.20
2019-05-01T23:16:44.793Z,36.28
2019-05-01T23:19:14.293Z,36.08
2019-05-01T23:21:45.903Z,22.27
2019-05-01T23:24:14.975Z,23.42
2019-05-01T23:26:48.045Z,27.60
2019-05-01T23:29:15.696Z,36.13
2019-05-01T23:31:45.194Z,42.03
2019-05-01T23:34:14.712Z,44.63
2019-05-01T23:36:44.131Z,38.50
2019-05-01T23:39:14.629Z,38.42
2019-05-01T23:41:47.124Z,35.63
2019-05-01T23:44:16.842Z,32.03
2019-05-01T23:46:46.340Z,29.83
2019-05-01T23:49:15.786Z,37.85
2019-05-01T23:51:45.288Z,40.03
2019-05-01T23:54:14.786Z,37.03
2019-05-01T23:56:44.198Z,42.95
2019-05-01T23:59:13.610Z,37.35
